Time;durP1;ratioP1;P1;durP2;ratioP2;P2;SDS_P1;SDS_P2;PMS_P1;PMS_P2;Temp;Humidity;BMP_temperature;BMP_pressure;BME280_temperature;BME280_humidity;BME280_pressure;Samples;Min_cycle;Max_cycle;Signal;HPM_P1;HPM_P2
2022/04/28 00:00:49;;;;;;;6.97;3.60;;;12.00;99.50;;;;;;4177530;28;20052;-62
2022/04/28 00:02:51;;;;;;;7.97;3.92;;;12.00;99.90;;;;;;4171376;28;20040;-66
2022/04/28 00:04:52;;;;;;;8.70;4.65;;;12.00;99.90;;;;;;4171027;28;20047;-63
2022/04/28 00:06:52;;;;;;;7.57;4.13;;;11.90;99.90;;;;;;4176788;28;20029;-63
2022/04/28 00:08:53;;;;;;;7.57;4.00;;;11.90;99.90;;;;;;4175898;28;20040;-62
2022/04/28 00:10:53;;;;;;;10.07;4.13;;;11.90;99.90;;;;;;4172018;28;20029;-63
2022/04/28 00:12:54;;;;;;;4.40;3.50;;;11.90;99.90;;;;;;4174171;28;20068;-63
2022/04/28 00:14:55;;;;;;;6.43;3.95;;;11.80;99.80;;;;;;4176541;28;20040;-62
2022/04/28 00:16:55;;;;;;;6.80;4.00;;;11.80;99.70;;;;;;4174649;28;20489;-63
2022/04/28 00:18:56;;;;;;;8.38;4.25;;;11.80;99.90;;;;;;4178332;28;20397;-63
2022/04/28 00:20:56;;;;;;;8.20;4.25;;;11.80;99.90;;;;;;4173724;28;20392;-62
2022/04/28 00:22:57;;;;;;;7.80;4.07;;;11.70;99.90;;;;;;4176659;28;20052;-63
2022/04/28 00:24:58;;;;;;;8.25;4.10;;;11.80;99.90;;;;;;4173386;28;20073;-62
2022/04/28 00:26:58;;;;;;;10.10;5.03;;;11.70;99.90;;;;;;4171941;28;20033;-62
2022/04/28 00:28:59;;;;;;;5.45;3.88;;;11.70;99.90;;;;;;4174402;28;20503;-62
2022/04/28 00:30:59;;;;;;;6.65;3.80;;;11.70;99.90;;;;;;4173279;28;20037;-62
2022/04/28 00:33:00;;;;;;;9.27;4.80;;;11.70;99.90;;;;;;4175761;28;20041;-62
2022/04/28 00:35:01;;;;;;;6.22;3.65;;;11.70;99.90;;;;;;4173122;28;20456;-62
2022/04/28 00:37:02;;;;;;;7.35;4.50;;;11.60;99.90;;;;;;4173738;28;20057;-63
2022/04/28 00:39:02;;;;;;;6.95;4.30;;;11.60;99.90;;;;;;4169852;28;20095;-62
2022/04/28 00:41:03;;;;;;;7.28;4.05;;;11.60;99.90;;;;;;4171862;28;20167;-62
2022/04/28 00:43:19;;;;;;;6.38;4.25;;;11.60;99.90;;;;;;4174516;28;20506;-62
2022/04/28 00:45:19;;;;;;;9.90;4.93;;;11.60;99.90;;;;;;4174297;28;20060;-63
2022/04/28 00:47:22;;;;;;;7.28;4.28;;;11.50;99.90;;;;;;4170512;28;20029;-62
2022/04/28 00:51:42;;;;;;;7.15;3.90;;;11.50;99.90;;;;;;4173827;28;19913;-63
2022/04/28 00:53:48;;;;;;;7.05;4.30;;;11.50;99.90;;;;;;4170799;28;20040;-62
2022/04/28 00:55:48;;;;;;;8.48;4.55;;;11.40;99.90;;;;;;4175337;28;20120;-62
2022/04/28 00:57:50;;;;;;;6.40;3.95;;;11.40;99.90;;;;;;4172412;28;20492;-63
2022/04/28 00:59:51;;;;;;;10.05;4.50;;;11.40;99.90;;;;;;4173717;28;20044;-63
2022/04/28 01:01:52;;;;;;;6.18;3.90;;;11.40;99.90;;;;;;4174214;28;20021;-63
2022/04/28 01:03:52;;;;;;;7.57;4.07;;;11.30;99.90;;;;;;4169524;28;20033;-63
2022/04/28 01:05:53;;;;;;;8.10;4.15;;;11.30;99.90;;;;;;4173105;28;20104;-63
2022/04/28 01:07:54;;;;;;;7.05;4.00;;;11.20;99.90;;;;;;4174877;28;20028;-63
2022/04/28 01:09:54;;;;;;;8.93;4.05;;;11.20;99.90;;;;;;4173015;28;20116;-63
2022/04/28 01:11:55;;;;;;;7.30;4.40;;;11.20;99.90;;;;;;4175055;28;20082;-62
2022/04/28 01:13:56;;;;;;;7.65;4.55;;;11.20;99.90;;;;;;4170539;28;20112;-62
2022/04/28 01:15:56;;;;;;;5.25;4.07;;;11.20;99.90;;;;;;4173545;28;20025;-62
2022/04/28 01:17:57;;;;;;;7.57;4.50;;;11.20;99.90;;;;;;4176969;28;20048;-62
2022/04/28 01:19:57;;;;;;;9.32;4.57;;;11.10;99.90;;;;;;4170818;28;20950;-62
2022/04/28 01:21:58;;;;;;;7.00;4.65;;;11.10;99.90;;;;;;4171636;28;20458;-62
2022/04/28 01:24:00;;;;;;;8.50;4.85;;;11.10;99.90;;;;;;4175094;28;20128;-62
2022/04/28 01:26:02;;;;;;;8.90;4.75;;;11.10;99.90;;;;;;4170856;28;20026;-62
2022/04/28 01:28:03;;;;;;;5.30;3.90;;;11.00;99.90;;;;;;4173929;28;20078;-62
2022/04/28 01:30:15;;;;;;;7.32;4.35;;;11.00;99.90;;;;;;4174598;28;20064;-63
2022/04/28 01:32:15;;;;;;;6.50;4.13;;;10.90;99.90;;;;;;4174940;28;20033;-62
2022/04/28 01:34:16;;;;;;;7.85;4.25;;;10.90;99.90;;;;;;4171609;28;20106;-62
2022/04/28 01:36:17;;;;;;;7.05;4.20;;;10.90;99.90;;;;;;4173695;28;20029;-62
2022/04/28 01:38:18;;;;;;;7.85;4.60;;;10.90;99.90;;;;;;4171675;28;20040;-62
2022/04/28 01:40:20;;;;;;;6.63;4.25;;;10.90;99.90;;;;;;4170723;28;20060;-62
2022/04/28 01:42:20;;;;;;;7.07;4.32;;;10.80;99.90;;;;;;4169360;28;20508;-62
2022/04/28 01:44:21;;;;;;;11.05;4.68;;;10.60;99.90;;;;;;4170315;28;20032;-64
2022/04/28 01:46:22;;;;;;;6.82;4.18;;;10.60;99.90;;;;;;4170865;28;20029;-61
2022/04/28 01:48:23;;;;;;;7.13;4.57;;;10.60;99.90;;;;;;4176211;28;20090;-63
2022/04/28 01:50:23;;;;;;;9.95;4.50;;;10.60;99.90;;;;;;4166207;28;20484;-62
2022/04/28 01:54:58;;;;;;;8.40;4.30;;;10.50;99.90;;;;;;4174603;28;20373;-62
2022/04/28 01:56:59;;;;;;;7.65;4.43;;;10.40;99.90;;;;;;4174491;28;20052;-62
2022/04/28 01:59:00;;;;;;;7.47;4.43;;;10.40;99.90;;;;;;4170178;28;20033;-62
2022/04/28 02:01:00;;;;;;;6.97;4.57;;;10.40;99.90;;;;;;4169901;28;20037;-62
2022/04/28 02:03:01;;;;;;;9.80;5.13;;;10.30;99.90;;;;;;4172383;28;20029;-62
2022/04/28 02:05:03;;;;;;;9.73;4.95;;;10.30;99.90;;;;;;4179489;28;20171;-62
2022/04/28 02:07:04;;;;;;;8.70;5.03;;;10.20;99.90;;;;;;4173112;28;20040;-62
2022/04/28 02:09:05;;;;;;;8.20;5.20;;;10.20;99.90;;;;;;4177773;28;20488;-62
2022/04/28 02:11:07;;;;;;;10.07;4.60;;;10.20;99.90;;;;;;4174006;28;20095;-62
2022/04/28 02:13:08;;;;;;;7.97;4.75;;;10.20;99.90;;;;;;4178697;28;20037;-62
2022/04/28 02:15:09;;;;;;;7.85;5.18;;;10.20;99.90;;;;;;4171551;28;20133;-63
2022/04/28 02:17:10;;;;;;;8.63;5.28;;;10.20;99.90;;;;;;4171462;28;20142;-63
2022/04/28 02:19:10;;;;;;;8.15;4.97;;;10.20;99.90;;;;;;4178557;28;20041;-62
2022/04/28 02:21:11;;;;;;;8.75;5.38;;;10.10;99.90;;;;;;4168487;28;22164;-62
2022/04/28 02:23:11;;;;;;;8.57;4.90;;;10.20;99.90;;;;;;4180167;28;20044;-62
2022/04/28 02:25:12;;;;;;;7.38;4.60;;;10.20;99.90;;;;;;4176457;28;20048;-63
2022/04/28 02:27:13;;;;;;;8.25;5.22;;;10.20;99.90;;;;;;4175020;28;20186;-62
2022/04/28 02:29:13;;;;;;;9.75;5.28;;;10.10;99.90;;;;;;4178554;28;20511;-62
2022/04/28 02:31:14;;;;;;;15.55;5.88;;;10.10;99.90;;;;;;4176595;28;20036;-62
2022/04/28 02:33:16;;;;;;;13.77;5.25;;;10.00;99.90;;;;;;4180166;28;20392;-62
2022/04/28 02:35:16;;;;;;;10.87;5.67;;;10.00;99.90;;;;;;4172277;28;20030;-63
2022/04/28 02:37:18;;;;;;;7.18;4.57;;;10.10;99.90;;;;;;4178223;28;20027;-62
2022/04/28 02:39:19;;;;;;;10.23;5.43;;;10.00;99.90;;;;;;4176831;28;20048;-62
2022/04/28 02:41:21;;;;;;;8.30;5.50;;;10.00;99.90;;;;;;4172517;28;20272;-62
2022/04/28 02:43:22;;;;;;;8.63;5.32;;;10.00;99.90;;;;;;4177355;28;20029;-62
2022/04/28 02:45:23;;;;;;;9.18;4.85;;;10.00;99.90;;;;;;4170785;28;20033;-63
2022/04/28 02:47:24;;;;;;;7.70;5.05;;;10.10;99.90;;;;;;4176157;28;20029;-63
2022/04/28 02:49:24;;;;;;;10.88;5.88;;;10.00;99.90;;;;;;4174138;28;20029;-62
2022/04/28 02:51:25;;;;;;;8.77;5.60;;;10.00;99.90;;;;;;4176043;28;20029;-62
2022/04/28 02:53:26;;;;;;;8.77;5.00;;;10.10;99.90;;;;;;4178523;28;20112;-62
2022/04/28 02:55:26;;;;;;;7.10;5.07;;;10.00;99.90;;;;;;4175922;28;20064;-62
2022/04/28 02:57:27;;;;;;;7.30;5.20;;;10.10;99.90;;;;;;4179586;28;20491;-63
2022/04/28 02:59:27;;;;;;;9.13;5.18;;;10.00;99.90;;;;;;4171002;28;20029;-60
2022/04/28 03:01:28;;;;;;;9.15;5.05;;;10.10;99.90;;;;;;4177372;28;20175;-62
2022/04/28 03:03:32;;;;;;;9.52;5.53;;;10.00;99.90;;;;;;4175557;28;20921;-62
2022/04/28 03:10:46;;;;;;;10.35;5.53;;;10.00;99.90;;;;;;4173572;28;20049;-62
2022/04/28 03:12:52;;;;;;;8.93;5.75;;;9.90;99.90;;;;;;4169831;28;20512;-63
2022/04/28 03:14:53;;;;;;;11.68;5.68;;;9.90;99.90;;;;;;4173947;28;20116;-63
2022/04/28 03:16:54;;;;;;;9.38;5.63;;;9.90;99.90;;;;;;4177303;28;20036;-63
2022/04/28 03:18:54;;;;;;;9.82;6.10;;;9.90;99.90;;;;;;4177758;28;20032;-63
2022/04/28 03:20:55;;;;;;;9.65;5.95;;;9.90;99.90;;;;;;4172878;28;20026;-63
2022/04/28 03:22:56;;;;;;;10.02;5.60;;;9.90;99.90;;;;;;4177543;28;20043;-62
2022/04/28 03:24:57;;;;;;;7.35;5.35;;;9.80;99.90;;;;;;4175328;28;20073;-62
2022/04/28 03:26:57;;;;;;;7.75;5.47;;;9.80;99.90;;;;;;4177184;28;20061;-62
2022/04/28 03:28:58;;;;;;;12.57;6.80;;;9.90;99.90;;;;;;4177020;28;20029;-62
2022/04/28 03:30:59;;;;;;;6.93;5.20;;;9.80;99.90;;;;;;4177678;28;20087;-62
2022/04/28 03:33:00;;;;;;;9.98;6.25;;;9.90;99.90;;;;;;4175899;28;20041;-62
2022/04/28 03:35:01;;;;;;;10.65;5.45;;;9.90;99.90;;;;;;4176166;28;20128;-62
2022/04/28 03:37:01;;;;;;;11.55;5.95;;;9.90;99.90;;;;;;4173738;28;20029;-62
2022/04/28 03:39:02;;;;;;;9.65;5.38;;;9.90;99.90;;;;;;4178246;28;20085;-62
2022/04/28 03:41:03;;;;;;;7.97;5.60;;;9.80;99.90;;;;;;4177682;28;20029;-62
2022/04/28 03:43:04;;;;;;;7.70;5.40;;;9.90;99.90;;;;;;4176380;28;20044;-62
2022/04/28 03:45:05;;;;;;;11.60;5.80;;;9.90;99.90;;;;;;4177632;28;20045;-62
2022/04/28 03:47:06;;;;;;;9.75;5.22;;;9.90;99.90;;;;;;4176698;28;20028;-62
2022/04/28 03:49:07;;;;;;;10.77;5.28;;;9.90;99.90;;;;;;4175592;28;20029;-62
2022/04/28 03:51:07;;;;;;;10.55;5.65;;;9.90;99.90;;;;;;4170991;28;20172;-62
2022/04/28 03:53:08;;;;;;;7.95;5.32;;;9.80;99.90;;;;;;4171754;28;20454;-62
2022/04/28 03:55:09;;;;;;;15.10;6.22;;;9.80;99.90;;;;;;4175144;28;20045;-62
2022/04/28 03:57:10;;;;;;;12.70;5.82;;;9.80;99.90;;;;;;4174315;28;20048;-64
2022/04/28 03:59:11;;;;;;;11.00;5.75;;;9.80;99.90;;;;;;4175813;28;20048;-63
2022/04/28 04:01:12;;;;;;;11.90;5.63;;;9.80;99.90;;;;;;4174138;28;20049;-63
2022/04/28 04:03:12;;;;;;;11.25;5.60;;;9.80;99.90;;;;;;4174607;28;20041;-62
2022/04/28 04:05:13;;;;;;;13.27;6.22;;;9.70;99.90;;;;;;4176823;28;20044;-62
2022/04/28 04:07:14;;;;;;;10.90;6.30;;;9.70;99.90;;;;;;4175294;28;20089;-62
2022/04/28 04:09:15;;;;;;;10.82;5.93;;;9.70;99.90;;;;;;4174820;28;20033;-62
2022/04/28 04:11:15;;;;;;;8.27;5.53;;;9.70;99.90;;;;;;4176428;28;20109;-62
2022/04/28 04:13:16;;;;;;;9.18;6.15;;;9.70;99.90;;;;;;4176391;28;20053;-62
2022/04/28 04:15:16;;;;;;;9.65;5.97;;;9.70;99.90;;;;;;4172330;28;20037;-63
2022/04/28 04:17:17;;;;;;;11.52;6.65;;;9.70;99.90;;;;;;4174222;28;20120;-62
2022/04/28 04:19:18;;;;;;;9.43;6.22;;;9.70;99.90;;;;;;4176481;28;20117;-62
2022/04/28 04:21:20;;;;;;;11.93;6.57;;;9.60;99.90;;;;;;4172342;28;20045;-62
2022/04/28 04:23:20;;;;;;;9.98;6.63;;;9.60;99.90;;;;;;4174940;28;20042;-62
2022/04/28 04:25:22;;;;;;;13.57;6.97;;;9.60;99.90;;;;;;4172887;28;20044;-62
2022/04/28 04:27:22;;;;;;;10.48;6.47;;;9.60;99.90;;;;;;4174277;28;20056;-62
2022/04/28 04:29:23;;;;;;;11.73;6.10;;;9.60;99.90;;;;;;4172182;28;20041;-63
2022/04/28 04:33:43;;;;;;;10.07;6.55;;;9.50;99.90;;;;;;4171980;28;20496;-63
2022/04/28 04:35:43;;;;;;;11.23;6.15;;;9.50;99.90;;;;;;4174900;28;20040;-63
2022/04/28 04:37:44;;;;;;;11.70;6.30;;;9.50;99.90;;;;;;4176836;28;20033;-62
2022/04/28 04:39:45;;;;;;;11.18;6.88;;;9.50;99.90;;;;;;4173042;28;20090;-62
2022/04/28 04:41:45;;;;;;;10.13;6.60;;;9.50;99.90;;;;;;4173278;28;20069;-62
2022/04/28 04:43:46;;;;;;;12.35;6.85;;;9.40;99.90;;;;;;4174592;28;20422;-62
2022/04/28 04:45:46;;;;;;;11.52;6.80;;;9.50;99.90;;;;;;4171819;28;20033;-62
2022/04/28 04:47:47;;;;;;;13.88;7.85;;;9.50;99.90;;;;;;4174774;28;20551;-62
2022/04/28 04:49:47;;;;;;;10.20;6.75;;;9.50;99.90;;;;;;4173736;28;20045;-62
2022/04/28 04:51:48;;;;;;;11.35;6.55;;;9.50;99.90;;;;;;4173285;28;20041;-63
2022/04/28 04:53:49;;;;;;;11.05;6.60;;;9.40;99.90;;;;;;4174446;28;20496;-62
2022/04/28 04:55:49;;;;;;;13.13;6.97;;;9.50;99.90;;;;;;4172214;28;20385;-63
2022/04/28 04:57:50;;;;;;;12.05;6.95;;;9.50;99.90;;;;;;4174367;28;20087;-64
2022/04/28 04:59:51;;;;;;;11.48;6.30;;;9.40;99.90;;;;;;4174610;28;20067;-63
2022/04/28 05:01:51;;;;;;;22.52;7.60;;;9.50;99.90;;;;;;4172458;28;20037;-63
2022/04/28 05:03:52;;;;;;;12.05;6.75;;;9.50;99.90;;;;;;4174529;28;20041;-63
2022/04/28 05:05:53;;;;;;;13.95;7.28;;;9.50;99.90;;;;;;4172715;28;20033;-62
2022/04/28 05:07:53;;;;;;;9.23;6.15;;;9.50;99.90;;;;;;4172070;28;20149;-64
2022/04/28 05:09:54;;;;;;;14.05;7.40;;;9.50;99.90;;;;;;4174069;28;20033;-64
2022/04/28 05:11:55;;;;;;;12.43;7.57;;;9.60;99.90;;;;;;4173104;28;20029;-63
2022/04/28 05:13:55;;;;;;;13.88;7.35;;;9.60;99.90;;;;;;4174188;28;20025;-63
2022/04/28 05:15:56;;;;;;;13.18;6.88;;;9.60;99.90;;;;;;4172910;28;20423;-63
2022/04/28 05:17:56;;;;;;;16.38;8.60;;;9.60;99.90;;;;;;4174900;28;20039;-63
2022/04/28 05:19:58;;;;;;;11.98;6.75;;;9.60;99.90;;;;;;4172281;28;20081;-63
2022/04/28 05:21:58;;;;;;;13.55;7.38;;;9.60;99.90;;;;;;4168566;28;20068;-63
2022/04/28 05:23:59;;;;;;;10.10;6.85;;;9.60;99.90;;;;;;4172171;28;20045;-63
2022/04/28 05:25:59;;;;;;;13.15;7.00;;;9.70;99.90;;;;;;4171310;28;20082;-63
2022/04/28 05:28:00;;;;;;;11.27;7.35;;;9.70;99.90;;;;;;4174457;28;20053;-63
2022/04/28 05:30:01;;;;;;;14.88;7.68;;;9.70;99.90;;;;;;4172366;28;20045;-62
2022/04/28 05:32:02;;;;;;;11.82;7.05;;;9.70;99.90;;;;;;4174536;28;20037;-63
2022/04/28 05:34:03;;;;;;;12.32;7.13;;;9.70;99.90;;;;;;4169414;28;20029;-62
2022/04/28 05:36:08;;;;;;;13.48;7.47;;;9.70;99.90;;;;;;4174374;28;20032;-63
2022/04/28 05:38:09;;;;;;;12.93;7.03;;;9.70;99.90;;;;;;4172953;28;20473;-63
2022/04/28 05:40:12;;;;;;;11.32;7.65;;;9.70;99.90;;;;;;4170197;28;20026;-64
2022/04/28 05:42:13;;;;;;;13.88;8.18;;;9.70;99.90;;;;;;4171802;28;20025;-62
2022/04/28 05:46:33;;;;;;;16.20;8.73;;;9.80;99.90;;;;;;4172253;28;20041;-63
2022/04/28 05:48:34;;;;;;;14.77;7.63;;;9.60;99.90;;;;;;4171033;28;20108;-62
2022/04/28 05:50:37;;;;;;;16.85;8.25;;;9.70;99.90;;;;;;4173229;28;20032;-62
2022/04/28 05:52:39;;;;;;;18.95;8.20;;;9.70;99.90;;;;;;4174360;28;20116;-62
2022/04/28 05:54:40;;;;;;;;;;;9.60;99.90;;;;;;4172811;28;20044;-63
2022/04/28 05:56:42;;;;;;;14.73;7.55;;;9.60;99.90;;;;;;4171966;28;19932;-63
2022/04/28 05:58:42;;;;;;;13.85;7.80;;;9.60;99.90;;;;;;4171437;28;20052;-64
2022/04/28 06:00:43;;;;;;;14.75;8.55;;;9.60;99.90;;;;;;4172409;28;20033;-66
2022/04/28 06:02:43;;;;;;;18.55;8.73;;;9.70;99.90;;;;;;4173794;28;20045;-63
2022/04/28 06:04:44;;;;;;;17.65;9.27;;;9.70;99.90;;;;;;4171242;28;20719;-63
2022/04/28 06:06:45;;;;;;;15.93;8.70;;;9.50;99.90;;;;;;4171294;28;20366;-63
2022/04/28 06:08:45;;;;;;;16.48;8.65;;;9.40;99.90;;;;;;4172622;28;20128;-63
2022/04/28 06:10:46;;;;;;;14.75;8.30;;;9.60;99.90;;;;;;4172769;28;20116;-63
2022/04/28 06:12:46;;;;;;;19.30;9.77;;;9.70;99.90;;;;;;4172486;28;20615;-62
2022/04/28 06:14:48;;;;;;;13.40;8.07;;;9.40;99.90;;;;;;4172437;28;20103;-63
2022/04/28 06:16:48;;;;;;;15.82;8.85;;;9.50;99.90;;;;;;4173202;28;20078;-63
2022/04/28 06:18:49;;;;;;;15.07;8.60;;;9.50;99.90;;;;;;4172037;28;20091;-63
2022/04/28 06:20:49;;;;;;;16.77;8.63;;;9.70;99.90;;;;;;4172742;28;20107;-63
2022/04/28 06:22:50;;;;;;;12.73;7.88;;;9.70;99.90;;;;;;4172207;28;20144;-63
2022/04/28 06:24:54;;;;;;;13.35;8.00;;;9.70;99.90;;;;;;4173473;28;20041;-63
2022/04/28 06:26:55;;;;;;;21.55;8.88;;;9.80;99.90;;;;;;4171749;28;20399;-63
2022/04/28 06:28:55;;;;;;;11.25;8.18;;;9.90;99.90;;;;;;4173301;28;20025;-63
2022/04/28 06:30:56;;;;;;;16.65;8.48;;;10.00;99.90;;;;;;4171534;28;20033;-63
2022/04/28 06:32:57;;;;;;;13.40;8.05;;;10.20;99.90;;;;;;4173529;28;20033;-63
2022/04/28 06:34:57;;;;;;;13.27;8.48;;;10.40;99.90;;;;;;4170539;28;20499;-63
2022/04/28 06:36:58;;;;;;;12.73;8.07;;;10.60;99.90;;;;;;4171686;28;20408;-63
2022/04/28 06:38:58;;;;;;;17.02;8.10;;;11.00;99.90;;;;;;4171432;28;20033;-63
2022/04/28 06:40:59;;;;;;;14.85;7.65;;;11.40;99.90;;;;;;4172849;28;20037;-63
2022/04/28 06:43:00;;;;;;;14.32;6.95;;;11.70;99.90;;;;;;4171724;28;20036;-64
2022/04/28 06:45:00;;;;;;;16.25;7.93;;;12.30;99.90;;;;;;4169617;28;20408;-63
2022/04/28 06:47:05;;;;;;;15.82;7.60;;;12.70;99.90;;;;;;4171932;28;20199;-64
2022/04/28 06:49:05;;;;;;;11.30;7.03;;;13.10;99.90;;;;;;4172630;28;20636;-63
2022/04/28 06:51:06;;;;;;;11.70;6.47;;;13.50;99.90;;;;;;4172697;28;20045;-63
2022/04/28 06:53:07;;;;;;;12.82;6.13;;;13.90;99.90;;;;;;4175786;28;20041;-63
2022/04/28 06:55:09;;;;;;;11.10;6.55;;;14.30;99.90;;;;;;4175763;28;20920;-63
2022/04/28 06:57:10;;;;;;;9.85;5.65;;;14.50;99.90;;;;;;4173427;28;20071;-63
2022/04/28 06:59:11;;;;;;;12.63;6.53;;;14.90;99.90;;;;;;4174522;28;20041;-63
2022/04/28 07:01:11;;;;;;;12.25;6.20;;;15.00;99.90;;;;;;4174294;28;20044;-63
2022/04/28 07:03:12;;;;;;;14.55;6.18;;;15.20;99.90;;;;;;4174060;28;20064;-63
2022/04/28 07:05:12;;;;;;;13.18;5.93;;;15.50;99.90;;;;;;4173583;28;21004;-65
2022/04/28 07:07:14;;;;;;;11.75;5.95;;;15.20;98.60;;;;;;4171285;28;20052;-65
2022/04/28 07:09:15;;;;;;;10.93;5.70;;;15.10;99.90;;;;;;4174078;28;20142;-64
2022/04/28 07:11:15;;;;;;;11.15;5.88;;;15.30;99.90;;;;;;4170419;28;20041;-63
2022/04/28 07:13:16;;;;;;;9.73;6.38;;;14.90;98.30;;;;;;4181512;28;20044;-63
2022/04/28 07:15:17;;;;;;;11.30;6.70;;;14.70;97.90;;;;;;4175637;28;20037;-63
2022/04/28 07:17:17;;;;;;;11.82;5.63;;;14.30;98.50;;;;;;4175814;28;20064;-64
2022/04/28 07:19:18;;;;;;;12.15;5.15;;;14.70;99.90;;;;;;4174072;28;20041;-63
2022/04/28 07:21:18;;;;;;;12.40;5.70;;;15.00;99.90;;;;;;4171156;28;20044;-63
2022/04/28 07:23:19;;;;;;;13.50;6.50;;;15.10;99.30;;;;;;4171623;28;20208;-63
2022/04/28 07:25:20;;;;;;;9.93;6.25;;;15.30;99.90;;;;;;4175123;28;20141;-63
2022/04/28 07:27:20;;;;;;;9.52;6.47;;;15.50;99.20;;;;;;4174033;28;20029;-63
2022/04/28 07:29:21;;;;;;;10.45;5.55;;;15.50;98.50;;;;;;4175862;28;20061;-63
2022/04/28 07:31:21;;;;;;;14.10;6.75;;;15.50;99.20;;;;;;4174063;28;20135;-63
2022/04/28 07:33:22;;;;;;;11.95;6.22;;;15.60;99.90;;;;;;4175577;28;20052;-63
2022/04/28 07:35:26;;;;;;;8.95;5.30;;;15.70;98.70;;;;;;4173401;28;20072;-63
2022/04/28 07:37:26;;;;;;;12.57;6.35;;;16.00;99.90;;;;;;4173172;28;20057;-63
2022/04/28 07:39:27;;;;;;;9.70;5.68;;;15.80;97.10;;;;;;4173314;28;20277;-63
2022/04/28 07:41:28;;;;;;;10.25;5.85;;;16.00;96.80;;;;;;4173848;28;20041;-63
2022/04/28 07:43:29;;;;;;;13.55;6.07;;;15.90;96.40;;;;;;4172597;28;20048;-63
2022/04/28 07:45:30;;;;;;;9.63;6.40;;;15.60;97.30;;;;;;4171339;28;20044;-63
2022/04/28 07:47:31;;;;;;;11.68;6.45;;;16.00;98.30;;;;;;4176199;28;20098;-64
2022/04/28 07:49:32;;;;;;;14.45;7.22;;;16.10;99.40;;;;;;4176358;28;20115;-63
2022/04/28 07:51:32;;;;;;;9.15;6.03;;;15.60;95.00;;;;;;4173461;28;20071;-63
2022/04/28 07:53:33;;;;;;;8.55;5.65;;;15.80;98.30;;;;;;4175222;28;20037;-63
2022/04/28 07:55:33;;;;;;;14.10;6.22;;;15.80;96.30;;;;;;4175366;28;20538;-63
2022/04/28 07:57:34;;;;;;;12.77;6.63;;;16.10;98.80;;;;;;4175479;28;20396;-63
2022/04/28 07:59:35;;;;;;;10.18;6.13;;;16.00;96.20;;;;;;4176157;28;20116;-63
2022/04/28 08:01:35;;;;;;;11.85;7.13;;;16.10;98.70;;;;;;4174290;28;20087;-63
2022/04/28 08:03:37;;;;;;;9.98;6.50;;;16.10;95.10;;;;;;4172017;28;20029;-63
2022/04/28 08:05:37;;;;;;;14.50;6.53;;;16.10;96.90;;;;;;4174794;28;20504;-63
2022/04/28 08:07:38;;;;;;;15.38;7.50;;;16.40;98.90;;;;;;4175993;28;20045;-63
2022/04/28 08:09:39;;;;;;;10.43;5.85;;;15.70;94.80;;;;;;4174170;28;20045;-63
2022/04/28 08:11:41;;;;;;;13.25;6.10;;;16.00;98.50;;;;;;4174998;28;20029;-63
2022/04/28 08:13:42;;;;;;;;;;;16.30;97.60;;;;;;4175310;28;20124;-63
2022/04/28 08:15:43;;;;;;;11.63;6.05;;;16.50;96.70;;;;;;4175914;28;19909;-63
2022/04/28 08:17:43;;;;;;;11.25;6.00;;;16.40;96.60;;;;;;4173931;28;20132;-65
2022/04/28 08:19:44;;;;;;;15.13;6.60;;;16.60;97.90;;;;;;4175287;28;20029;-64
2022/04/28 08:21:46;;;;;;;11.93;6.18;;;16.50;94.30;;;;;;4172601;28;20037;-63
2022/04/28 08:23:46;;;;;;;11.68;6.07;;;16.70;96.40;;;;;;4175693;28;20055;-63
2022/04/28 08:25:47;;;;;;;13.73;7.03;;;16.90;96.60;;;;;;4173918;28;20053;-63
2022/04/28 08:27:47;;;;;;;10.90;6.53;;;17.00;96.80;;;;;;4175880;28;20033;-63
2022/04/28 08:29:48;;;;;;;10.75;6.20;;;17.20;97.90;;;;;;4174943;28;20037;-63
2022/04/28 08:31:49;;;;;;;10.57;6.15;;;17.30;97.50;;;;;;4175542;28;20380;-63
2022/04/28 08:33:49;;;;;;;12.45;6.70;;;17.50;96.00;;;;;;4175071;28;20120;-63
2022/04/28 08:35:50;;;;;;;12.50;6.28;;;17.50;95.10;;;;;;4174992;28;20583;-63
2022/04/28 08:37:51;;;;;;;9.77;6.28;;;17.60;96.30;;;;;;4175199;28;20048;-63
2022/04/28 08:39:51;;;;;;;10.57;6.18;;;17.70;95.20;;;;;;4174869;28;20040;-63
2022/04/28 08:41:53;;;;;;;12.50;6.72;;;17.80;94.10;;;;;;4173852;28;20033;-63
2022/04/28 08:43:58;;;;;;;14.82;7.72;;;17.80;93.00;;;;;;4174027;28;20109;-63
2022/04/28 08:48:27;;;;;;;11.85;6.88;;;17.60;93.70;;;;;;4175378;28;20041;-63
2022/04/28 08:50:28;;;;;;;16.38;7.35;;;17.40;91.40;;;;;;4175447;28;20037;-63
2022/04/28 08:52:29;;;;;;;12.63;6.20;;;17.30;95.10;;;;;;4174726;28;20044;-63
2022/04/28 08:54:31;;;;;;;11.85;6.22;;;17.50;94.10;;;;;;4174829;28;20029;-63
2022/04/28 08:56:32;;;;;;;11.45;6.53;;;17.60;95.20;;;;;;4167941;28;20056;-63
2022/04/28 08:58:32;;;;;;;13.43;6.35;;;17.70;94.70;;;;;;4174776;28;20025;-63
2022/04/28 09:00:36;;;;;;;10.27;6.10;;;17.90;94.90;;;;;;4174632;28;20035;-63
2022/04/28 09:02:39;;;;;;;9.48;5.53;;;17.90;94.90;;;;;;4174512;28;20040;-63
2022/04/28 09:04:40;;;;;;;15.65;6.68;;;17.90;91.50;;;;;;4174607;28;20041;-63
2022/04/28 09:06:42;;;;;;;12.55;6.20;;;17.90;93.00;;;;;;4172922;28;20037;-63
2022/04/28 09:08:45;;;;;;;9.95;5.32;;;18.10;94.80;;;;;;4174627;28;20056;-63
2022/04/28 09:10:46;;;;;;;11.40;5.72;;;18.10;93.30;;;;;;4172597;28;20112;-63
2022/04/28 09:12:56;;;;;;;15.82;6.55;;;18.20;94.30;;;;;;4174729;28;20060;-63
2022/04/28 09:15:11;;;;;;;8.85;6.05;;;18.30;93.00;;;;;;4174286;28;20036;-65
2022/04/28 09:17:11;;;;;;;12.93;7.25;;;18.30;92.00;;;;;;4173376;28;20048;-63
2022/04/28 09:19:23;;;;;;;16.40;6.85;;;17.70;89.30;;;;;;4174327;28;20029;-63
2022/04/28 09:21:24;;;;;;;9.93;6.25;;;17.10;88.70;;;;;;4174835;28;20029;-63
2022/04/28 09:23:24;;;;;;;10.75;6.00;;;17.40;94.50;;;;;;4174524;28;20067;-62
2022/04/28 09:25:25;;;;;;;14.75;7.18;;;17.70;94.40;;;;;;4173578;28;20044;-63
2022/04/28 09:27:26;;;;;;;10.40;6.05;;;17.40;88.70;;;;;;4175173;28;20090;-63
2022/04/28 09:29:33;;;;;;;13.90;7.50;;;17.40;90.90;;;;;;4173225;28;20056;-65
2022/04/28 09:31:35;;;;;;;10.48;5.97;;;17.30;91.10;;;;;;4172584;28;21178;-63
2022/04/28 09:33:37;;;;;;;12.73;6.07;;;17.50;93.20;;;;;;4174118;28;20048;-63
2022/04/28 09:35:52;;;;;;;9.88;6.15;;;17.70;93.00;;;;;;4174300;28;20108;-63
2022/04/28 09:37:52;;;;;;;9.40;5.50;;;17.90;93.00;;;;;;4174604;28;20041;-63
2022/04/28 09:42:29;;;;;;;8.95;6.50;;;18.20;93.50;;;;;;4171654;28;20037;-63
2022/04/28 09:44:29;;;;;;;8.32;5.35;;;18.30;93.00;;;;;;4174431;28;20601;-63
2022/04/28 09:46:31;;;;;;;8.55;5.65;;;18.40;93.20;;;;;;4174475;28;20033;-63
2022/04/28 09:48:33;;;;;;;8.85;5.60;;;18.50;92.60;;;;;;4175075;28;20082;-63
2022/04/28 09:50:36;;;;;;;10.40;5.90;;;18.60;92.50;;;;;;4171852;28;20036;-64
2022/04/28 09:52:37;;;;;;;8.27;4.80;;;18.80;91.80;;;;;;4174102;28;20045;-63
2022/04/28 09:54:40;;;;;;;8.40;5.15;;;18.80;90.30;;;;;;4174240;28;20495;-64
2022/04/28 09:56:43;;;;;;;;;;;18.80;87.00;;;;;;4175070;28;20043;-63
2022/04/28 09:58:45;;;;;;;11.90;6.95;;;18.00;81.30;;;;;;4172423;28;20338;-63
2022/04/28 10:00:45;;;;;;;11.93;6.65;;;17.40;82.80;;;;;;4175116;28;20088;-64
2022/04/28 10:02:48;;;;;;;7.75;5.68;;;17.40;85.90;;;;;;4172025;28;20053;-64
2022/04/28 10:04:49;;;;;;;;;;;17.70;91.50;;;;;;4174216;28;20041;-65
2022/04/28 10:06:50;;;;;;;9.63;5.55;;;17.90;92.20;;;;;;4172767;28;19984;-63
2022/04/28 10:08:55;;;;;;;10.82;5.57;;;17.70;86.90;;;;;;4172389;28;20067;-63
2022/04/28 10:10:56;;;;;;;8.07;5.18;;;18.00;90.70;;;;;;4172731;28;20394;-64
2022/04/28 10:12:59;;;;;;;7.65;5.47;;;18.10;91.40;;;;;;4171961;28;20060;-64
2022/04/28 10:15:01;;;;;;;12.68;5.55;;;18.20;88.70;;;;;;4174196;28;20087;-64
2022/04/28 10:17:03;;;;;;;9.00;5.75;;;18.40;91.70;;;;;;4174168;28;20518;-63
2022/04/28 10:19:19;;;;;;;10.43;6.18;;;18.50;91.80;;;;;;4174624;28;20079;-64
2022/04/28 10:21:23;;;;;;;12.15;6.18;;;18.50;86.30;;;;;;4172099;28;20083;-64
2022/04/28 10:32:56;;;;;;;9.27;6.38;;;18.80;90.30;;;;;;4177082;28;20045;-65
2022/04/28 10:35:06;;;;;;;10.35;6.13;;;18.90;91.00;;;;;;4177632;28;20029;-64
2022/04/28 10:37:07;;;;;;;9.80;6.75;;;18.90;90.20;;;;;;4173079;28;20033;-64
2022/04/28 10:39:10;;;;;;;12.50;6.75;;;18.90;91.40;;;;;;4178843;28;20036;-64
2022/04/28 10:41:13;;;;;;;9.88;6.53;;;19.00;91.00;;;;;;4178041;28;20349;-64
2022/04/28 10:43:25;;;;;;;10.45;6.10;;;19.00;90.80;;;;;;4173764;28;20044;-63
2022/04/28 10:45:28;;;;;;;16.30;8.25;;;19.00;90.40;;;;;;4175454;28;20041;-64
2022/04/28 10:47:37;;;;;;;11.23;6.75;;;18.90;90.90;;;;;;4177691;28;20045;-64
2022/04/28 10:49:43;;;;;;;10.95;6.57;;;18.90;90.50;;;;;;4178021;28;20037;-64
2022/04/28 10:51:44;;;;;;;12.45;7.18;;;18.80;91.00;;;;;;4175944;28;20037;-63
2022/04/28 10:54:09;;;;;;;6.93;5.55;;;18.80;88.30;;;;;;4175948;28;20037;-64
2022/04/28 10:56:12;;;;;;;8.52;5.25;;;18.80;89.10;;;;;;4175722;28;20029;-64
2022/04/28 10:58:24;;;;;;;10.93;6.68;;;18.90;90.50;;;;;;4176611;28;20033;-63
2022/04/28 11:00:34;;;;;;;11.52;7.55;;;18.50;84.80;;;;;;4175731;28;20086;-64